Alto Horizonte, Brazil
Current Conditions -  °F | °C
As of 8:00 AM on Monday 20 Oct 2014 (Local Time) from SBAN Reporting Station
Clear Clear  
Wind Chill: 72°   Ceiling: Unl
Heat Index: 72°   Visibility: 6mi
Dew Point: 59°   Wind: 18mph
Humidity: 64%   Direction: 190°S
Pressure: 30.12"   Gusts: NA
Location:  14.2°S, 49.34°W
Report Text: SBAN 201100Z 19016KT CAVOK 22/15 Q1020
Loading
Personal Weather Stations






























Interactive Weather Map
Tropical Storm Tracking
New forecast layout! Learn more

10-Day Weather Forecast

Advertisements
Track Severe Weather on mobile